sensor_id;sensor_type;location;lat;lon;timestamp;pressure;altitude;pressure_sealevel;temperature;humidity
76794;BME280;65745;50.278;18.192;2023-01-01T00:01:53;100026.38;;;10.61;68.61
76794;BME280;65745;50.278;18.192;2023-01-01T00:04:52;100013.89;;;10.57;68.49
76794;BME280;65745;50.278;18.192;2023-01-01T00:07:25;100007.54;;;10.50;68.47
76794;BME280;65745;50.278;18.192;2023-01-01T00:09:57;100010.45;;;10.42;68.70
76794;BME280;65745;50.278;18.192;2023-01-01T00:13:02;100014.59;;;10.34;68.98
76794;BME280;65745;50.278;18.192;2023-01-01T00:15:45;100009.53;;;10.32;69.54
76794;BME280;65745;50.278;18.192;2023-01-01T00:18:18;100004.86;;;10.30;69.54
76794;BME280;65745;50.278;18.192;2023-01-01T00:20:50;100001.44;;;10.32;69.18
76794;BME280;65745;50.278;18.192;2023-01-01T00:23:26;100002.66;;;10.33;69.21
76794;BME280;65745;50.278;18.192;2023-01-01T00:26:24;99994.95;;;10.34;68.97
76794;BME280;65745;50.278;18.192;2023-01-01T00:29:13;99982.54;;;10.41;68.96
76794;BME280;65745;50.278;18.192;2023-01-01T00:31:46;99994.69;;;10.45;69.17
76794;BME280;65745;50.278;18.192;2023-01-01T00:34:21;99988.44;;;10.50;68.51
76794;BME280;65745;50.278;18.192;2023-01-01T00:36:54;99993.05;;;10.49;68.52
76794;BME280;65745;50.278;18.192;2023-01-01T00:39:26;100003.77;;;10.51;68.31
76794;BME280;65745;50.278;18.192;2023-01-01T00:42:23;100007.25;;;10.53;68.56
76794;BME280;65745;50.278;18.192;2023-01-01T00:44:56;100009.73;;;10.57;68.49
76794;BME280;65745;50.278;18.192;2023-01-01T00:47:55;100015.05;;;10.63;67.92
76794;BME280;65745;50.278;18.192;2023-01-01T00:50:27;100019.66;;;10.60;68.00
76794;BME280;65745;50.278;18.192;2023-01-01T00:53:03;100023.81;;;10.61;68.04
76794;BME280;65745;50.278;18.192;2023-01-01T00:55:50;100026.25;;;10.63;68.02
76794;BME280;65745;50.278;18.192;2023-01-01T00:58:24;100032.75;;;10.69;68.05
76794;BME280;65745;50.278;18.192;2023-01-01T01:01:00;100040.02;;;10.71;67.73
76794;BME280;65745;50.278;18.192;2023-01-01T01:03:33;100043.04;;;10.75;67.35
76794;BME280;65745;50.278;18.192;2023-01-01T01:09:28;100051.45;;;10.73;67.49
76794;BME280;65745;50.278;18.192;2023-01-01T01:12:03;100046.70;;;10.77;67.94
76794;BME280;65745;50.278;18.192;2023-01-01T01:14:48;100042.50;;;10.82;67.66
76794;BME280;65745;50.278;18.192;2023-01-01T01:17:25;100042.54;;;10.84;67.44
76794;BME280;65745;50.278;18.192;2023-01-01T01:19:57;100036.19;;;10.85;67.11
76794;BME280;65745;50.278;18.192;2023-01-01T01:22:33;100040.55;;;10.87;67.09
76794;BME280;65745;50.278;18.192;2023-01-01T01:25:15;100052.98;;;10.89;66.77
76794;BME280;65745;50.278;18.192;2023-01-01T01:27:48;100049.96;;;10.93;66.72
76794;BME280;65745;50.278;18.192;2023-01-01T01:30:26;100061.29;;;10.98;67.28
76794;BME280;65745;50.278;18.192;2023-01-01T01:33:00;100059.27;;;11.01;67.11
76794;BME280;65745;50.278;18.192;2023-01-01T01:35:57;100055.93;;;10.98;66.84
76794;BME280;65745;50.278;18.192;2023-01-01T01:38:29;100054.31;;;10.95;66.56
76794;BME280;65745;50.278;18.192;2023-01-01T01:41:19;100059.60;;;10.92;66.68
76794;BME280;65745;50.278;18.192;2023-01-01T01:44:00;100056.92;;;10.87;66.56
76794;BME280;65745;50.278;18.192;2023-01-01T01:46:37;100050.57;;;10.80;66.89
76794;BME280;65745;50.278;18.192;2023-01-01T01:49:25;100052.45;;;10.80;67.43
76794;BME280;65745;50.278;18.192;2023-01-01T01:52:01;100053.27;;;10.79;67.04
76794;BME280;65745;50.278;18.192;2023-01-01T01:54:36;100050.41;;;10.81;66.83
76794;BME280;65745;50.278;18.192;2023-01-01T01:57:20;100044.11;;;10.85;66.60
76794;BME280;65745;50.278;18.192;2023-01-01T01:59:55;100040.33;;;10.85;66.44
76794;BME280;65745;50.278;18.192;2023-01-01T02:02:36;100048.20;;;10.90;66.08
76794;BME280;65745;50.278;18.192;2023-01-01T02:05:18;100058.52;;;10.89;66.38
76794;BME280;65745;50.278;18.192;2023-01-01T02:07:51;100062.32;;;10.82;67.38
76794;BME280;65745;50.278;18.192;2023-01-01T02:10:24;100063.36;;;10.75;68.01
76794;BME280;65745;50.278;18.192;2023-01-01T02:12:57;100063.88;;;10.66;67.80
76794;BME280;65745;50.278;18.192;2023-01-01T02:15:33;100073.30;;;10.57;67.60
76794;BME280;65745;50.278;18.192;2023-01-01T02:18:13;100075.03;;;10.50;67.66
76794;BME280;65745;50.278;18.192;2023-01-01T02:20:55;100072.39;;;10.47;67.37
76794;BME280;65745;50.278;18.192;2023-01-01T02:26:50;100081.55;;;10.41;68.07
76794;BME280;65745;50.278;18.192;2023-01-01T02:29:35;100082.02;;;10.46;67.96
76794;BME280;65745;50.278;18.192;2023-01-01T02:32:14;100080.20;;;10.49;67.87
76794;BME280;65745;50.278;18.192;2023-01-01T02:34:52;100066.71;;;10.47;67.67
76794;BME280;65745;50.278;18.192;2023-01-01T02:37:30;100058.67;;;10.42;67.74
76794;BME280;65745;50.278;18.192;2023-01-01T02:40:03;100056.99;;;10.37;67.76
76794;BME280;65745;50.278;18.192;2023-01-01T02:42:36;100052.26;;;10.33;68.24
76794;BME280;65745;50.278;18.192;2023-01-01T02:45:12;100044.64;;;10.38;68.50
76794;BME280;65745;50.278;18.192;2023-01-01T02:47:44;100039.41;;;10.43;68.05
76794;BME280;65745;50.278;18.192;2023-01-01T02:50:19;100030.40;;;10.48;67.93
76794;BME280;65745;50.278;18.192;2023-01-01T02:53:06;100029.48;;;10.54;67.72
76794;BME280;65745;50.278;18.192;2023-01-01T02:55:51;100022.48;;;10.56;67.48
76794;BME280;65745;50.278;18.192;2023-01-01T02:58:28;100039.31;;;10.61;67.68
76794;BME280;65745;50.278;18.192;2023-01-01T03:01:24;100044.54;;;10.64;68.12
76794;BME280;65745;50.278;18.192;2023-01-01T03:04:08;100045.40;;;10.64;67.72
76794;BME280;65745;50.278;18.192;2023-01-01T03:06:48;100041.60;;;10.64;67.61
76794;BME280;65745;50.278;18.192;2023-01-01T03:09:26;100047.11;;;10.64;67.12
76794;BME280;65745;50.278;18.192;2023-01-01T03:12:08;100034.35;;;10.63;67.18
76794;BME280;65745;50.278;18.192;2023-01-01T03:14:54;100029.94;;;10.59;67.20
76794;BME280;65745;50.278;18.192;2023-01-01T03:17:31;100032.85;;;10.58;68.12
76794;BME280;65745;50.278;18.192;2023-01-01T03:20:09;100032.40;;;10.60;68.35
76794;BME280;65745;50.278;18.192;2023-01-01T03:22:44;100031.10;;;10.57;68.29
76794;BME280;65745;50.278;18.192;2023-01-01T03:25:21;100032.70;;;10.59;68.09
76794;BME280;65745;50.278;18.192;2023-01-01T03:28:01;100024.88;;;10.63;67.76
76794;BME280;65745;50.278;18.192;2023-01-01T03:30:36;100012.73;;;10.75;67.47
76794;BME280;65745;50.278;18.192;2023-01-01T03:33:15;100010.23;;;10.88;67.10
76794;BME280;65745;50.278;18.192;2023-01-01T03:35:52;100010.09;;;10.98;66.94
76794;BME280;65745;50.278;18.192;2023-01-01T03:38:29;100004.64;;;11.10;67.38
76794;BME280;65745;50.278;18.192;2023-01-01T03:41:12;100009.29;;;11.19;66.78
76794;BME280;65745;50.278;18.192;2023-01-01T03:43:48;100019.67;;;11.30;66.26
76794;BME280;65745;50.278;18.192;2023-01-01T03:46:29;100034.77;;;11.44;65.37
76794;BME280;65745;50.278;18.192;2023-01-01T03:49:03;100035.06;;;11.60;64.85
76794;BME280;65745;50.278;18.192;2023-01-01T03:51:58;100040.83;;;11.73;64.09
76794;BME280;65745;50.278;18.192;2023-01-01T03:54:40;100051.70;;;11.82;64.13
76794;BME280;65745;50.278;18.192;2023-01-01T03:57:20;100070.04;;;11.84;63.97
76794;BME280;65745;50.278;18.192;2023-01-01T04:00:02;100073.98;;;11.93;63.31
76794;BME280;65745;50.278;18.192;2023-01-01T04:02:51;100065.34;;;12.03;62.78
76794;BME280;65745;50.278;18.192;2023-01-01T04:05:26;100055.67;;;12.03;62.98
76794;BME280;65745;50.278;18.192;2023-01-01T04:08:01;100045.01;;;12.04;62.94
76794;BME280;65745;50.278;18.192;2023-01-01T04:10:35;100043.95;;;12.03;62.81
76794;BME280;65745;50.278;18.192;2023-01-01T04:13:12;100039.04;;;11.98;62.95
76794;BME280;65745;50.278;18.192;2023-01-01T04:15:45;100039.77;;;11.91;63.09
76794;BME280;65745;50.278;18.192;2023-01-01T04:18:21;100046.40;;;11.85;63.44
76794;BME280;65745;50.278;18.192;2023-01-01T04:20:53;100052.73;;;11.81;64.08
76794;BME280;65745;50.278;18.192;2023-01-01T04:23:25;100054.05;;;11.78;64.62
76794;BME280;65745;50.278;18.192;2023-01-01T04:25:58;100061.85;;;11.71;64.59
76794;BME280;65745;50.278;18.192;2023-01-01T04:28:30;100066.00;;;11.63;64.56
76794;BME280;65745;50.278;18.192;2023-01-01T04:31:03;100065.69;;;11.56;64.66
76794;BME280;65745;50.278;18.192;2023-01-01T04:33:36;100063.61;;;11.46;64.81
76794;BME280;65745;50.278;18.192;2023-01-01T04:36:10;100053.98;;;11.38;64.84
76794;BME280;65745;50.278;18.192;2023-01-01T04:38:46;100049.45;;;11.36;64.66
76794;BME280;65745;50.278;18.192;2023-01-01T04:41:18;100049.29;;;11.36;64.33
76794;BME280;65745;50.278;18.192;2023-01-01T04:43:51;100057.67;;;11.32;64.50
76794;BME280;65745;50.278;18.192;2023-01-01T04:46:23;100055.84;;;11.27;64.76
76794;BME280;65745;50.278;18.192;2023-01-01T04:48:55;100062.08;;;11.20;65.19
76794;BME280;65745;50.278;18.192;2023-01-01T04:51:28;100059.90;;;11.15;65.28
76794;BME280;65745;50.278;18.192;2023-01-01T04:54:01;100061.06;;;11.13;65.36
76794;BME280;65745;50.278;18.192;2023-01-01T04:56:33;100061.25;;;11.13;65.94
76794;BME280;65745;50.278;18.192;2023-01-01T04:59:06;100056.85;;;11.17;66.37
76794;BME280;65745;50.278;18.192;2023-01-01T05:01:47;100056.90;;;11.20;65.93
76794;BME280;65745;50.278;18.192;2023-01-01T05:04:20;100055.30;;;11.18;65.81
76794;BME280;65745;50.278;18.192;2023-01-01T05:06:55;100052.54;;;11.09;66.19
76794;BME280;65745;50.278;18.192;2023-01-01T05:09:31;100060.13;;;11.01;66.25
76794;BME280;65745;50.278;18.192;2023-01-01T05:12:04;100066.52;;;10.93;66.27
76794;BME280;65745;50.278;18.192;2023-01-01T05:14:36;100068.79;;;10.86;66.19
76794;BME280;65745;50.278;18.192;2023-01-01T05:17:08;100066.95;;;10.81;66.97
76794;BME280;65745;50.278;18.192;2023-01-01T05:19:41;100061.09;;;10.81;67.43
76794;BME280;65745;50.278;18.192;2023-01-01T05:22:17;100061.92;;;10.80;67.44
76794;BME280;65745;50.278;18.192;2023-01-01T05:24:50;100067.59;;;10.79;67.16
76794;BME280;65745;50.278;18.192;2023-01-01T05:27:22;100062.95;;;10.79;66.68
76794;BME280;65745;50.278;18.192;2023-01-01T05:29:54;100063.77;;;10.78;66.47
76794;BME280;65745;50.278;18.192;2023-01-01T05:32:26;100064.80;;;10.78;66.53
76794;BME280;65745;50.278;18.192;2023-01-01T05:34:59;100068.77;;;10.78;66.58
76794;BME280;65745;50.278;18.192;2023-01-01T05:37:35;100071.23;;;10.80;67.07
76794;BME280;65745;50.278;18.192;2023-01-01T05:40:22;100073.17;;;10.90;66.56
76794;BME280;65745;50.278;18.192;2023-01-01T05:42:55;100073.31;;;10.96;65.82
76794;BME280;65745;50.278;18.192;2023-01-01T05:45:27;100082.11;;;11.05;65.50
76794;BME280;65745;50.278;18.192;2023-01-01T05:48:00;100083.00;;;11.15;64.81
76794;BME280;65745;50.278;18.192;2023-01-01T05:50:36;100084.45;;;11.19;64.56
76794;BME280;65745;50.278;18.192;2023-01-01T05:53:08;100091.06;;;11.22;64.61
76794;BME280;65745;50.278;18.192;2023-01-01T05:55:41;100094.14;;;11.20;64.46
76794;BME280;65745;50.278;18.192;2023-01-01T05:58:13;100089.63;;;11.19;64.78
76794;BME280;65745;50.278;18.192;2023-01-01T06:00:45;100095.36;;;11.21;64.43
76794;BME280;65745;50.278;18.192;2023-01-01T06:03:24;100092.91;;;11.27;64.61
76794;BME280;65745;50.278;18.192;2023-01-01T06:05:56;100090.03;;;11.30;64.28
76794;BME280;65745;50.278;18.192;2023-01-01T06:08:29;100085.77;;;11.32;64.07
76794;BME280;65745;50.278;18.192;2023-01-01T06:11:03;100092.54;;;11.35;63.53
76794;BME280;65745;50.278;18.192;2023-01-01T06:13:36;100092.52;;;11.33;63.68
76794;BME280;65745;50.278;18.192;2023-01-01T06:16:09;100094.44;;;11.35;63.34
76794;BME280;65745;50.278;18.192;2023-01-01T06:18:44;100095.30;;;11.35;63.27
76794;BME280;65745;50.278;18.192;2023-01-01T06:21:17;100098.55;;;11.33;63.56
76794;BME280;65745;50.278;18.192;2023-01-01T06:23:51;100102.86;;;11.32;63.54
76794;BME280;65745;50.278;18.192;2023-01-01T06:26:25;100104.86;;;11.30;63.98
76794;BME280;65745;50.278;18.192;2023-01-01T06:28:59;100106.10;;;11.31;64.27
76794;BME280;65745;50.278;18.192;2023-01-01T06:31:33;100115.48;;;11.35;63.78
76794;BME280;65745;50.278;18.192;2023-01-01T06:34:10;100121.70;;;11.35;63.60
76794;BME280;65745;50.278;18.192;2023-01-01T06:36:46;100125.58;;;11.31;63.86
76794;BME280;65745;50.278;18.192;2023-01-01T06:39:18;100127.59;;;11.27;63.47
76794;BME280;65745;50.278;18.192;2023-01-01T06:41:51;100138.34;;;11.23;63.70
76794;BME280;65745;50.278;18.192;2023-01-01T06:44:23;100140.27;;;11.17;63.92
76794;BME280;65745;50.278;18.192;2023-01-01T06:46:56;100142.63;;;11.14;63.93
76794;BME280;65745;50.278;18.192;2023-01-01T06:49:28;100142.73;;;11.10;64.04
76794;BME280;65745;50.278;18.192;2023-01-01T06:52:01;100152.05;;;11.03;64.62
76794;BME280;65745;50.278;18.192;2023-01-01T06:54:33;100155.90;;;10.98;65.35
76794;BME280;65745;50.278;18.192;2023-01-01T06:57:06;100158.18;;;10.92;65.67
76794;BME280;65745;50.278;18.192;2023-01-01T06:59:39;100158.41;;;10.87;65.45
76794;BME280;65745;50.278;18.192;2023-01-01T07:02:12;100157.31;;;10.77;65.61
76794;BME280;65745;50.278;18.192;2023-01-01T07:04:48;100161.45;;;10.70;65.84
76794;BME280;65745;50.278;18.192;2023-01-01T07:07:20;100171.44;;;10.62;65.80
76794;BME280;65745;50.278;18.192;2023-01-01T07:09:53;100171.30;;;10.56;66.11
76794;BME280;65745;50.278;18.192;2023-01-01T07:12:25;100176.15;;;10.50;66.35
76794;BME280;65745;50.278;18.192;2023-01-01T07:14:58;100172.09;;;10.46;67.11
76794;BME280;65745;50.278;18.192;2023-01-01T07:17:32;100176.17;;;10.44;67.01
76794;BME280;65745;50.278;18.192;2023-01-01T07:20:06;100180.99;;;10.38;67.06
76794;BME280;65745;50.278;18.192;2023-01-01T07:22:42;100185.73;;;10.34;67.09
76794;BME280;65745;50.278;18.192;2023-01-01T07:25:16;100191.35;;;10.32;67.36
76794;BME280;65745;50.278;18.192;2023-01-01T07:27:48;100199.41;;;10.31;67.39
76794;BME280;65745;50.278;18.192;2023-01-01T07:30:26;100206.09;;;10.29;67.29
76794;BME280;65745;50.278;18.192;2023-01-01T07:32:59;100217.98;;;10.29;67.67
76794;BME280;65745;50.278;18.192;2023-01-01T07:35:32;100233.29;;;10.29;67.97
76794;BME280;65745;50.278;18.192;2023-01-01T07:38:04;100245.41;;;10.32;67.71
76794;BME280;65745;50.278;18.192;2023-01-01T07:40:36;100249.61;;;10.34;67.50
76794;BME280;65745;50.278;18.192;2023-01-01T07:43:09;100255.18;;;10.36;67.60
76794;BME280;65745;50.278;18.192;2023-01-01T07:45:42;100261.16;;;10.35;67.38
76794;BME280;65745;50.278;18.192;2023-01-01T07:48:17;100262.42;;;10.31;67.23
76794;BME280;65745;50.278;18.192;2023-01-01T07:50:50;100257.70;;;10.28;67.13
76794;BME280;65745;50.278;18.192;2023-01-01T07:53:23;100255.75;;;10.26;67.63
76794;BME280;65745;50.278;18.192;2023-01-01T07:55:56;100257.70;;;10.28;67.43
76794;BME280;65745;50.278;18.192;2023-01-01T07:58:29;100255.44;;;10.33;67.65
76794;BME280;65745;50.278;18.192;2023-01-01T08:01:25;100267.19;;;10.42;67.80
76794;BME280;65745;50.278;18.192;2023-01-01T08:04:01;100267.28;;;10.51;67.36
76794;BME280;65745;50.278;18.192;2023-01-01T08:06:34;100258.64;;;10.50;67.05
76794;BME280;65745;50.278;18.192;2023-01-01T08:09:07;100265.30;;;10.48;66.82
76794;BME280;65745;50.278;18.192;2023-01-01T08:11:39;100269.55;;;10.46;67.09
76794;BME280;65745;50.278;18.192;2023-01-01T08:14:12;100277.77;;;10.44;67.28
76794;BME280;65745;50.278;18.192;2023-01-01T08:16:47;100279.15;;;10.44;67.36
76794;BME280;65745;50.278;18.192;2023-01-01T08:19:20;100280.61;;;10.47;67.26
76794;BME280;65745;50.278;18.192;2023-01-01T08:21:52;100277.29;;;10.52;67.72
76794;BME280;65745;50.278;18.192;2023-01-01T08:24:25;100285.08;;;10.60;67.62
76794;BME280;65745;50.278;18.192;2023-01-01T08:26:57;100281.04;;;10.70;67.53
76794;BME280;65745;50.278;18.192;2023-01-01T08:29:29;100281.23;;;10.85;67.13
76794;BME280;65745;50.278;18.192;2023-01-01T08:32:02;100274.99;;;10.97;66.75
76794;BME280;65745;50.278;18.192;2023-01-01T08:34:35;100268.77;;;11.11;66.32
76794;BME280;65745;50.278;18.192;2023-01-01T08:37:13;100262.73;;;11.26;66.12
76794;BME280;65745;50.278;18.192;2023-01-01T08:39:52;100262.00;;;11.39;65.63
76794;BME280;65745;50.278;18.192;2023-01-01T08:42:24;100253.80;;;11.51;65.41
76794;BME280;65745;50.278;18.192;2023-01-01T08:45:00;100254.08;;;11.57;65.03
76794;BME280;65745;50.278;18.192;2023-01-01T08:47:33;100254.46;;;11.58;64.97
76794;BME280;65745;50.278;18.192;2023-01-01T08:50:07;100259.02;;;11.54;64.71
76794;BME280;65745;50.278;18.192;2023-01-01T08:52:48;100254.45;;;11.58;65.09
76794;BME280;65745;50.278;18.192;2023-01-01T08:55:20;100252.36;;;11.87;65.45
76794;BME280;65745;50.278;18.192;2023-01-01T08:57:56;100251.67;;;12.13;65.05
76794;BME280;65745;50.278;18.192;2023-01-01T09:00:29;100253.29;;;12.44;63.66
76794;BME280;65745;50.278;18.192;2023-01-01T09:03:02;100260.80;;;12.49;63.33
76794;BME280;65745;50.278;18.192;2023-01-01T09:05:37;100272.09;;;12.43;63.49
76794;BME280;65745;50.278;18.192;2023-01-01T09:08:16;100283.84;;;12.42;63.52
76794;BME280;65745;50.278;18.192;2023-01-01T09:10:53;100288.90;;;12.45;63.07
76794;BME280;65745;50.278;18.192;2023-01-01T09:13:30;100288.27;;;12.49;62.93
76794;BME280;65745;50.278;18.192;2023-01-01T09:16:07;100286.98;;;12.53;62.91
76794;BME280;65745;50.278;18.192;2023-01-01T09:18:46;100294.83;;;12.57;62.88
76794;BME280;65745;50.278;18.192;2023-01-01T09:21:21;100308.15;;;12.59;62.21
76794;BME280;65745;50.278;18.192;2023-01-01T09:23:53;100305.13;;;12.63;62.60
76794;BME280;65745;50.278;18.192;2023-01-01T09:26:26;100301.98;;;12.71;62.64
76794;BME280;65745;50.278;18.192;2023-01-01T09:29:01;100291.16;;;12.75;62.37
76794;BME280;65745;50.278;18.192;2023-01-01T09:31:33;100292.48;;;12.82;62.27
76794;BME280;65745;50.278;18.192;2023-01-01T09:34:06;100285.52;;;12.89;62.19
76794;BME280;65745;50.278;18.192;2023-01-01T09:36:39;100274.94;;;12.98;62.10
76794;BME280;65745;50.278;18.192;2023-01-01T09:39:17;100266.77;;;13.06;61.70
76794;BME280;65745;50.278;18.192;2023-01-01T09:42:05;100271.48;;;13.18;61.93
76794;BME280;65745;50.278;18.192;2023-01-01T09:45:10;100269.20;;;13.26;61.48
76794;BME280;65745;50.278;18.192;2023-01-01T09:47:48;100256.98;;;13.31;61.54
76794;BME280;65745;50.278;18.192;2023-01-01T09:50:26;100252.89;;;13.35;61.48
76794;BME280;65745;50.278;18.192;2023-01-01T09:53:05;100252.61;;;13.40;61.25
76794;BME280;65745;50.278;18.192;2023-01-01T09:55:52;100253.59;;;13.48;61.00
76794;BME280;65745;50.278;18.192;2023-01-01T09:58:25;100246.05;;;13.54;60.70
76794;BME280;65745;50.278;18.192;2023-01-01T10:01:04;100239.17;;;13.56;60.63
76794;BME280;65745;50.278;18.192;2023-01-01T10:03:55;100238.10;;;13.68;60.67
76794;BME280;65745;50.278;18.192;2023-01-01T10:06:32;100236.30;;;13.76;60.64
76794;BME280;65745;50.278;18.192;2023-01-01T10:09:17;100237.83;;;13.88;60.69
76794;BME280;65745;50.278;18.192;2023-01-01T10:11:57;100236.83;;;13.90;60.21
76794;BME280;65745;50.278;18.192;2023-01-01T10:14:34;100230.93;;;13.90;60.42
76794;BME280;65745;50.278;18.192;2023-01-01T10:17:33;100231.71;;;13.98;60.58
76794;BME280;65745;50.278;18.192;2023-01-01T10:20:10;100245.50;;;14.07;60.28
76794;BME280;65745;50.278;18.192;2023-01-01T10:22:53;100238.38;;;14.05;60.22
76794;BME280;65745;50.278;18.192;2023-01-01T10:25:28;100232.98;;;14.03;60.27
76794;BME280;65745;50.278;18.192;2023-01-01T10:28:04;100219.23;;;13.96;60.17
76794;BME280;65745;50.278;18.192;2023-01-01T10:30:44;100223.66;;;13.90;60.64
76794;BME280;65745;50.278;18.192;2023-01-01T10:33:16;100220.41;;;13.80;61.18
76794;BME280;65745;50.278;18.192;2023-01-01T10:35:51;100215.83;;;13.72;61.50
76794;BME280;65745;50.278;18.192;2023-01-01T10:38:26;100208.63;;;13.64;61.50
76794;BME280;65745;50.278;18.192;2023-01-01T10:41:02;100205.45;;;13.59;61.49
76794;BME280;65745;50.278;18.192;2023-01-01T10:43:47;100207.67;;;13.58;61.83
76794;BME280;65745;50.278;18.192;2023-01-01T10:46:22;100207.42;;;13.65;61.57
76794;BME280;65745;50.278;18.192;2023-01-01T10:49:08;100201.28;;;13.73;60.92
76794;BME280;65745;50.278;18.192;2023-01-01T10:51:48;100203.39;;;13.74;61.01
76794;BME280;65745;50.278;18.192;2023-01-01T10:54:35;100204.23;;;13.73;61.02
76794;BME280;65745;50.278;18.192;2023-01-01T10:57:31;100204.63;;;13.77;61.26
76794;BME280;65745;50.278;18.192;2023-01-01T11:00:22;100213.73;;;13.85;61.31
76794;BME280;65745;50.278;18.192;2023-01-01T11:03:20;100213.25;;;13.88;61.18
76794;BME280;65745;50.278;18.192;2023-01-01T11:06:03;100211.85;;;13.87;61.14
76794;BME280;65745;50.278;18.192;2023-01-01T11:08:36;100217.58;;;13.88;61.10
76794;BME280;65745;50.278;18.192;2023-01-01T11:11:20;100219.42;;;13.83;61.09
76794;BME280;65745;50.278;18.192;2023-01-01T11:13:56;100225.40;;;13.76;61.46
76794;BME280;65745;50.278;18.192;2023-01-01T11:16:30;100230.73;;;13.74;61.73
76794;BME280;65745;50.278;18.192;2023-01-01T11:19:05;100230.35;;;13.85;62.05
76794;BME280;65745;50.278;18.192;2023-01-01T11:21:37;100220.18;;;14.04;61.81
76794;BME280;65745;50.278;18.192;2023-01-01T11:24:25;100217.95;;;14.22;61.14
76794;BME280;65745;50.278;18.192;2023-01-01T11:27:17;100213.10;;;14.37;60.46
76794;BME280;65745;50.278;18.192;2023-01-01T11:29:52;100212.82;;;14.43;59.69
76794;BME280;65745;50.278;18.192;2023-01-01T11:32:57;100208.84;;;14.44;59.48
76794;BME280;65745;50.278;18.192;2023-01-01T11:35:47;100212.09;;;14.39;59.31
76794;BME280;65745;50.278;18.192;2023-01-01T11:38:22;100205.48;;;14.38;59.54
76794;BME280;65745;50.278;18.192;2023-01-01T11:41:04;100199.60;;;14.39;59.77
76794;BME280;65745;50.278;18.192;2023-01-01T11:43:39;100196.59;;;14.34;59.87
76794;BME280;65745;50.278;18.192;2023-01-01T11:46:21;100190.16;;;14.33;59.96
76794;BME280;65745;50.278;18.192;2023-01-01T11:48:58;100187.80;;;14.37;59.63
76794;BME280;65745;50.278;18.192;2023-01-01T11:51:31;100182.73;;;14.35;59.81
76794;BME280;65745;50.278;18.192;2023-01-01T11:54:22;100179.36;;;14.26;60.12
76794;BME280;65745;50.278;18.192;2023-01-01T11:56:57;100175.67;;;14.23;60.18
76794;BME280;65745;50.278;18.192;2023-01-01T11:59:52;100176.17;;;14.21;60.42
76794;BME280;65745;50.278;18.192;2023-01-01T12:02:31;100194.73;;;14.22;60.63
76794;BME280;65745;50.278;18.192;2023-01-01T12:05:12;100201.70;;;14.26;60.60
76794;BME280;65745;50.278;18.192;2023-01-01T12:07:46;100202.25;;;14.29;60.30
76794;BME280;65745;50.278;18.192;2023-01-01T12:10:26;100202.60;;;14.30;60.02
76794;BME280;65745;50.278;18.192;2023-01-01T12:13:09;100199.48;;;14.31;59.71
76794;BME280;65745;50.278;18.192;2023-01-01T12:15:53;100198.94;;;14.29;59.41
76794;BME280;65745;50.278;18.192;2023-01-01T12:18:36;100195.45;;;14.24;59.60
76794;BME280;65745;50.278;18.192;2023-01-01T12:21:16;100194.65;;;14.15;59.43
76794;BME280;65745;50.278;18.192;2023-01-01T12:23:53;100196.13;;;14.05;59.62
76794;BME280;65745;50.278;18.192;2023-01-01T12:26:28;100194.27;;;13.94;59.65
76794;BME280;65745;50.278;18.192;2023-01-01T12:29:28;100190.00;;;13.84;59.64
76794;BME280;65745;50.278;18.192;2023-01-01T12:32:08;100191.98;;;13.77;59.81
76794;BME280;65745;50.278;18.192;2023-01-01T12:34:51;100189.30;;;13.70;59.77
76794;BME280;65745;50.278;18.192;2023-01-01T12:37:38;100184.88;;;13.60;60.17
76794;BME280;65745;50.278;18.192;2023-01-01T12:40:40;100185.80;;;13.51;60.30
76794;BME280;65745;50.278;18.192;2023-01-01T12:43:30;100186.35;;;13.40;60.66
76794;BME280;65745;50.278;18.192;2023-01-01T12:46:27;100185.17;;;13.31;60.88
76794;BME280;65745;50.278;18.192;2023-01-01T12:49:33;100187.64;;;13.21;61.21
76794;BME280;65745;50.278;18.192;2023-01-01T12:52:17;100194.85;;;13.17;61.13
76794;BME280;65745;50.278;18.192;2023-01-01T12:55:16;100198.81;;;13.15;61.28
76794;BME280;65745;50.278;18.192;2023-01-01T12:58:02;100196.61;;;13.09;61.70
76794;BME280;65745;50.278;18.192;2023-01-01T13:00:42;100201.73;;;13.05;62.33
76794;BME280;65745;50.278;18.192;2023-01-01T13:03:22;100201.05;;;13.05;62.73
76794;BME280;65745;50.278;18.192;2023-01-01T13:05:57;100203.89;;;12.99;62.73
76794;BME280;65745;50.278;18.192;2023-01-01T13:08:35;100205.02;;;12.93;62.80
76794;BME280;65745;50.278;18.192;2023-01-01T13:11:09;100205.30;;;12.90;62.71
76794;BME280;65745;50.278;18.192;2023-01-01T13:13:46;100210.14;;;12.89;62.96
76794;BME280;65745;50.278;18.192;2023-01-01T13:16:33;100209.38;;;12.84;63.14
76794;BME280;65745;50.278;18.192;2023-01-01T13:19:20;100215.88;;;12.80;63.35
76794;BME280;65745;50.278;18.192;2023-01-01T13:21:59;100212.91;;;12.78;63.57
76794;BME280;65745;50.278;18.192;2023-01-01T13:24:32;100219.09;;;12.87;63.75
76794;BME280;65745;50.278;18.192;2023-01-01T13:27:06;100220.11;;;12.85;63.80
76794;BME280;65745;50.278;18.192;2023-01-01T13:29:46;100223.56;;;12.85;63.60
76794;BME280;65745;50.278;18.192;2023-01-01T13:32:21;100222.20;;;12.85;63.56
76794;BME280;65745;50.278;18.192;2023-01-01T13:35:14;100223.34;;;12.82;63.67
76794;BME280;65745;50.278;18.192;2023-01-01T13:37:48;100230.90;;;12.79;63.75
76794;BME280;65745;50.278;18.192;2023-01-01T13:43:30;100235.19;;;12.78;63.53
76794;BME280;65745;50.278;18.192;2023-01-01T13:46:08;100234.35;;;12.78;63.87